createdAt,value
2017-07-06T00:00:39.909Z,77.83
2017-07-06T00:01:39.890Z,77.63
2017-07-06T00:02:39.871Z,77.73
2017-07-06T00:03:39.850Z,78.17
2017-07-06T00:04:39.827Z,77.98
2017-07-06T00:05:39.829Z,78.4
2017-07-06T00:06:39.794Z,78.65
2017-07-06T00:07:39.770Z,78.65
2017-07-06T00:08:39.442Z,78.55
2017-07-06T00:09:40.033Z,78.55
2017-07-06T00:10:39.721Z,78.94
2017-07-06T00:11:39.692Z,78.94
2017-07-06T00:12:39.371Z,78.75
2017-07-06T00:13:39.651Z,78.75
2017-07-06T00:14:39.646Z,79.13
2017-07-06T00:15:39.303Z,79.22
2017-07-06T00:16:39.591Z,79.13
2017-07-06T00:17:39.573Z,79.32
2017-07-06T00:18:39.561Z,78.75
2017-07-06T00:19:39.529Z,78.94
2017-07-06T00:20:39.517Z,79.22
2017-07-06T00:21:39.494Z,79.22
2017-07-06T00:22:39.480Z,79.13
2017-07-06T00:23:39.457Z,79.13
2017-07-06T00:24:39.486Z,79.52
2017-07-06T00:25:39.417Z,79.52
2017-07-06T00:26:39.405Z,79.71
2017-07-06T00:27:39.069Z,79.71
2017-07-06T00:28:39.353Z,79.71
2017-07-06T00:29:39.336Z,79.99
2017-07-06T00:30:39.321Z,79.9
2017-07-06T00:31:39.543Z,79.76
2017-07-06T00:32:39.279Z,80.05
2017-07-06T00:33:39.263Z,79.67
2017-07-06T00:34:39.243Z,79.57
2017-07-06T00:35:38.909Z,79.86
2017-07-06T00:36:38.888Z,80.34
2017-07-06T00:37:39.182Z,80.24
2017-07-06T00:38:39.160Z,80.63
2017-07-06T00:39:39.150Z,80.53
2017-07-06T00:40:39.121Z,80.91
2017-07-06T00:41:39.106Z,80.34
2017-07-06T00:42:39.082Z,81.01
2017-07-06T00:43:39.059Z,81.01
2017-07-06T00:44:39.040Z,81.2
2017-07-06T00:45:39.023Z,81.01
2017-07-06T00:46:39.055Z,81.3
2017-07-06T00:47:38.983Z,81.1
2017-07-06T00:48:38.957Z,81.1
2017-07-06T00:49:38.996Z,81.3
2017-07-06T00:50:38.606Z,80.63
2017-07-06T00:51:38.904Z,80.91
2017-07-06T00:52:38.879Z,81.2
2017-07-06T00:53:38.859Z,81.87
2017-07-06T00:54:38.836Z,81.59
2017-07-06T00:55:38.825Z,81.59
2017-07-06T00:56:38.797Z,81.4
2017-07-06T00:57:38.781Z,81.68
2017-07-06T00:58:38.763Z,81.87
2017-07-06T00:59:38.748Z,81.87
2017-07-06T01:00:38.772Z,81.68
2017-07-06T01:01:38.704Z,81.49
2017-07-06T01:02:38.682Z,81.74
2017-07-06T01:03:38.663Z,82.03
2017-07-06T01:04:38.640Z,81.93
2017-07-06T01:05:38.869Z,81.84
2017-07-06T01:06:38.601Z,82.03
2017-07-06T01:07:38.584Z,82.41
2017-07-06T01:08:38.571Z,82.41
2017-07-06T01:09:38.541Z,82.31
2017-07-06T01:10:38.520Z,82.51
2017-07-06T01:11:38.504Z,82.41
2017-07-06T01:12:38.483Z,82.12
2017-07-06T01:13:38.466Z,82.41
2017-07-06T01:14:38.133Z,82.41
2017-07-06T01:15:38.427Z,82.41
2017-07-06T01:16:38.094Z,82.21
2017-07-06T01:17:38.382Z,82.41
2017-07-06T01:18:38.359Z,82.54
2017-07-06T01:19:38.031Z,82.31
2017-07-06T01:20:38.314Z,82.21
2017-07-06T01:21:38.298Z,82.21
2017-07-06T01:22:38.286Z,82.21
2017-07-06T01:23:38.260Z,82.41
2017-07-06T01:24:38.241Z,82.7
2017-07-06T01:25:38.218Z,82.31
2017-07-06T01:26:38.203Z,82.6
2017-07-06T01:27:37.870Z,82.12
2017-07-06T01:28:38.162Z,82.12
2017-07-06T01:29:38.145Z,82.12
2017-07-06T01:30:37.808Z,82.31
2017-07-06T01:31:38.100Z,82.21
2017-07-06T01:32:38.084Z,82.79
2017-07-06T01:33:38.058Z,82.79
2017-07-06T01:34:38.039Z,82.98
2017-07-06T01:35:38.018Z,83.18
2017-07-06T01:36:38.048Z,82.98
2017-07-06T01:37:37.977Z,83.08
2017-07-06T01:38:37.957Z,82.89
2017-07-06T01:39:37.631Z,83.08
2017-07-06T01:40:37.921Z,82.89
2017-07-06T01:41:37.899Z,83.27
2017-07-06T01:42:37.879Z,82.94
2017-07-06T01:43:37.916Z,83.52
2017-07-06T01:44:37.838Z,83.23
2017-07-06T01:45:37.818Z,83.04
2017-07-06T01:46:37.797Z,83.33
2017-07-06T01:47:37.776Z,83.81
2017-07-06T01:48:37.763Z,83.71
2017-07-06T01:49:37.733Z,83.42
2017-07-06T01:50:37.718Z,83.91
2017-07-06T01:51:37.696Z,83.61
2017-07-06T01:52:37.676Z,83.85
2017-07-06T01:53:37.349Z,83.52
2017-07-06T01:54:37.635Z,83.85
2017-07-06T01:55:37.611Z,83.75
2017-07-06T01:56:37.597Z,83.85
2017-07-06T01:57:37.267Z,83.47
2017-07-06T01:58:37.560Z,83.42
2017-07-06T01:59:37.541Z,83.47
2017-07-06T02:00:37.513Z,84.04
2017-07-06T02:01:37.490Z,84.09
2017-07-06T02:02:37.417Z,84
2017-07-06T02:03:37.459Z,83.71
2017-07-06T02:04:37.439Z,84.48
2017-07-06T02:05:37.416Z,84.38
2017-07-06T02:06:37.394Z,84.48
2017-07-06T02:07:37.064Z,84.28
2017-07-06T02:08:37.047Z,84
2017-07-06T02:09:37.333Z,84.58
2017-07-06T02:10:37.310Z,84.58
2017-07-06T02:11:37.293Z,84.48
2017-07-06T02:12:37.287Z,84.28
2017-07-06T02:13:37.252Z,84.38
2017-07-06T02:14:37.233Z,84.77
2017-07-06T02:15:37.214Z,84.86
2017-07-06T02:16:37.191Z,85.05
2017-07-06T02:17:37.177Z,84.95
2017-07-06T02:18:37.152Z,84.86
2017-07-06T02:19:37.131Z,84.67
2017-07-06T02:20:37.111Z,84.77
2017-07-06T02:21:37.089Z,84.77
2017-07-06T02:22:37.070Z,84.77
2017-07-06T02:23:37.052Z,84.86
2017-07-06T02:24:37.033Z,84.58
2017-07-06T02:25:37.011Z,84.48
2017-07-06T02:26:36.992Z,84.95
2017-07-06T02:27:36.971Z,84.86
2017-07-06T02:28:36.945Z,84.58
2017-07-06T02:29:36.929Z,85.15
2017-07-06T02:30:36.906Z,85.63
2017-07-06T02:31:36.886Z,85.34
2017-07-06T02:32:36.869Z,85.63
2017-07-06T02:33:36.850Z,85.44
2017-07-06T02:34:36.832Z,85.49
2017-07-06T02:35:36.810Z,85.58
2017-07-06T02:36:36.784Z,85.53
2017-07-06T02:37:36.769Z,85.63
2017-07-06T02:38:36.749Z,85.58
2017-07-06T02:39:36.735Z,85.88
2017-07-06T02:40:36.703Z,85.88
2017-07-06T02:41:36.378Z,86.16
2017-07-06T02:42:36.663Z,86.54
2017-07-06T02:43:36.642Z,85.97
2017-07-06T02:44:36.624Z,86.45
2017-07-06T02:45:36.602Z,86.58
2017-07-06T02:46:36.586Z,85.97
2017-07-06T02:47:36.561Z,86.54
2017-07-06T02:48:36.549Z,86.16
2017-07-06T02:49:36.522Z,86.25
2017-07-06T02:50:36.501Z,85.97
2017-07-06T02:51:36.478Z,85.97
2017-07-06T02:52:36.464Z,86.54
2017-07-06T02:53:36.443Z,86.16
2017-07-06T02:54:36.424Z,86.35
2017-07-06T02:55:36.396Z,86.35
2017-07-06T02:56:36.384Z,86.45
2017-07-06T02:57:36.405Z,86.3
2017-07-06T02:58:36.030Z,86.21
2017-07-06T02:59:36.322Z,86.01
2017-07-06T03:00:36.297Z,86.01
2017-07-06T03:01:36.288Z,86.3
2017-07-06T03:02:36.260Z,86.21
2017-07-06T03:03:36.237Z,86.01
2017-07-06T03:04:36.216Z,86.07
2017-07-06T03:05:36.195Z,86.21
2017-07-06T03:06:36.180Z,86.25
2017-07-06T03:07:36.157Z,86.01
2017-07-06T03:08:36.139Z,86.21
2017-07-06T03:09:36.115Z,86.21
2017-07-06T03:10:36.094Z,86.07
2017-07-06T03:11:35.764Z,86.21
2017-07-06T03:12:36.054Z,86.11
2017-07-06T03:13:36.031Z,86.21
2017-07-06T03:14:36.017Z,85.97
2017-07-06T03:15:35.988Z,86.25
2017-07-06T03:16:35.969Z,86.64
2017-07-06T03:17:35.953Z,86.45
2017-07-06T03:18:35.927Z,86.68
2017-07-06T03:19:35.909Z,86.54
2017-07-06T03:20:35.581Z,86.74
2017-07-06T03:21:35.875Z,86.64
2017-07-06T03:22:35.848Z,86.58
2017-07-06T03:23:35.828Z,86.54
2017-07-06T03:24:35.811Z,86.74
2017-07-06T03:25:35.788Z,86.45
2017-07-06T03:26:35.775Z,86.74
2017-07-06T03:27:35.746Z,86.83
2017-07-06T03:28:35.722Z,86.74
2017-07-06T03:29:35.713Z,86.93
2017-07-06T03:30:35.685Z,87.02
2017-07-06T03:31:35.665Z,87.02
2017-07-06T03:32:35.642Z,86.93
2017-07-06T03:33:35.627Z,87.12
2017-07-06T03:34:35.858Z,87.02
2017-07-06T03:35:35.324Z,86.93
2017-07-06T03:36:35.562Z,87.02
2017-07-06T03:37:35.544Z,86.74
2017-07-06T03:38:35.526Z,86.54
2017-07-06T03:39:35.502Z,87.5
2017-07-06T03:40:35.482Z,87.12
2017-07-06T03:41:35.459Z,87.41
2017-07-06T03:42:35.489Z,87.6
2017-07-06T03:43:35.418Z,87.41
2017-07-06T03:44:35.401Z,87.5
2017-07-06T03:45:35.382Z,87.31
2017-07-06T03:46:35.358Z,87.41
2017-07-06T03:47:35.340Z,87.41
2017-07-06T03:48:35.317Z,87.31
2017-07-06T03:49:35.295Z,87.31
2017-07-06T03:50:34.968Z,87.41
2017-07-06T03:51:34.948Z,87.12
2017-07-06T03:52:35.239Z,87.31
2017-07-06T03:53:35.214Z,87.31
2017-07-06T03:54:35.245Z,87.41
2017-07-06T03:55:34.868Z,87.02
2017-07-06T03:56:34.849Z,87.5
2017-07-06T03:57:35.135Z,87.41
2017-07-06T03:58:35.368Z,86.93
2017-07-06T03:59:35.095Z,87.35
2017-07-06T04:00:35.078Z,87.7
2017-07-06T04:01:35.050Z,87.16
2017-07-06T04:02:35.037Z,87.16
2017-07-06T04:03:35.010Z,87.07
2017-07-06T04:04:35.058Z,86.97
2017-07-06T04:05:34.970Z,86.58
2017-07-06T04:06:34.643Z,86.68
2017-07-06T04:07:34.933Z,86.21
2017-07-06T04:08:34.983Z,86.21
2017-07-06T04:09:34.891Z,86.11
2017-07-06T04:10:34.874Z,86.3
2017-07-06T04:11:34.855Z,86.01
2017-07-06T04:12:34.831Z,85.86
2017-07-06T04:13:34.812Z,85.48
2017-07-06T04:14:34.792Z,85.67
2017-07-06T04:15:34.776Z,85.19
2017-07-06T04:16:34.445Z,85.58
2017-07-06T04:17:34.739Z,85
2017-07-06T04:18:34.713Z,85.48
2017-07-06T04:19:34.692Z,84.61
2017-07-06T04:20:34.671Z,84.71
2017-07-06T04:21:34.656Z,84.81
2017-07-06T04:22:34.628Z,84.33
2017-07-06T04:23:34.311Z,84.27
2017-07-06T04:24:34.592Z,84.56
2017-07-06T04:25:34.575Z,84.08
2017-07-06T04:26:34.250Z,83.7
2017-07-06T04:27:34.537Z,83.6
2017-07-06T04:28:34.518Z,83.6
2017-07-06T04:29:34.497Z,83.03
2017-07-06T04:30:34.478Z,83.12
2017-07-06T04:31:34.457Z,83.07
2017-07-06T04:32:34.434Z,82.3
2017-07-06T04:33:34.422Z,82.59
2017-07-06T04:34:34.408Z,82.4
2017-07-06T04:35:34.382Z,82.59
2017-07-06T04:36:34.361Z,82.01
2017-07-06T04:37:34.342Z,82.2
2017-07-06T04:38:34.016Z,81.63
2017-07-06T04:39:33.995Z,81.72
2017-07-06T04:40:34.283Z,81.24
2017-07-06T04:41:34.265Z,81.24
2017-07-06T04:42:34.246Z,81.19
2017-07-06T04:43:34.230Z,81.05
2017-07-06T04:44:34.213Z,80.66
2017-07-06T04:45:34.197Z,80.8
2017-07-06T04:46:34.174Z,80.57
2017-07-06T04:47:34.155Z,80.76
2017-07-06T04:48:34.427Z,80.61
2017-07-06T04:49:34.111Z,80.61
2017-07-06T04:50:34.096Z,80.04
2017-07-06T04:51:34.074Z,79.65
2017-07-06T04:52:33.747Z,80.04
2017-07-06T04:53:34.043Z,79.84
2017-07-06T04:54:34.020Z,79.98
2017-07-06T04:55:34.005Z,79.88
2017-07-06T04:56:33.985Z,79.88
2017-07-06T04:57:33.967Z,79.4
2017-07-06T04:58:33.949Z,78.92
2017-07-06T04:59:33.625Z,78.92
2017-07-06T05:00:33.907Z,78.44
2017-07-06T05:01:33.891Z,78.15
2017-07-06T05:02:33.872Z,78.34
2017-07-06T05:03:33.917Z,78.25
2017-07-06T05:04:33.888Z,78.44
2017-07-06T05:05:33.834Z,78.06
2017-07-06T05:06:33.795Z,77.76
2017-07-06T05:07:33.789Z,77.33
2017-07-06T05:08:33.760Z,77.04
2017-07-06T05:09:33.445Z,77.23
2017-07-06T05:10:33.728Z,77.23
2017-07-06T05:11:33.719Z,76.31
2017-07-06T05:12:33.690Z,76.01
2017-07-06T05:13:33.682Z,76.11
2017-07-06T05:14:33.653Z,76.11
2017-07-06T05:15:33.636Z,76.01
2017-07-06T05:16:33.624Z,75.48
2017-07-06T05:17:33.601Z,75.09
2017-07-06T05:18:33.838Z,74.99
2017-07-06T05:19:33.571Z,74.41
2017-07-06T05:20:33.246Z,74.51
2017-07-06T05:21:33.527Z,73.49
2017-07-06T05:22:33.517Z,73.68
2017-07-06T05:23:33.498Z,73.1
2017-07-06T05:24:33.483Z,73.2
2017-07-06T05:25:33.467Z,73.39
2017-07-06T05:26:33.442Z,72.91
2017-07-06T05:28:33.416Z,72.91
2017-07-06T05:29:33.094Z,72.47
2017-07-06T05:30:33.379Z,72.63
2017-07-06T05:31:33.360Z,71.7
2017-07-06T05:32:33.345Z,71.79
2017-07-06T05:33:33.332Z,71.31
2017-07-06T05:34:33.327Z,70.73
2017-07-06T05:35:32.989Z,70.92
2017-07-06T05:36:33.282Z,71.06
2017-07-06T05:37:33.263Z,70.19
2017-07-06T05:38:33.252Z,70.28
2017-07-06T05:39:33.229Z,69.9
2017-07-06T05:40:32.906Z,69.45
2017-07-06T05:41:33.200Z,69.51
2017-07-06T05:42:33.183Z,69.55
2017-07-06T05:43:33.165Z,69.45
2017-07-06T05:44:33.148Z,69.16
2017-07-06T05:45:33.150Z,68.97
2017-07-06T05:46:33.131Z,68.97
2017-07-06T05:47:33.103Z,68.29
2017-07-06T05:48:33.092Z,68.39
2017-07-06T05:49:33.072Z,67.94
2017-07-06T05:50:33.095Z,68.13
2017-07-06T05:51:32.732Z,67.65
2017-07-06T05:52:33.027Z,67.75
2017-07-06T05:53:33.009Z,67.46
2017-07-06T05:54:32.996Z,67.85
2017-07-06T05:55:32.979Z,67.14
2017-07-06T05:56:32.980Z,67.62
2017-07-06T05:57:32.953Z,67.81
2017-07-06T05:58:32.938Z,67.46
2017-07-06T05:59:32.931Z,67.43
2017-07-06T06:00:32.962Z,67.14
2017-07-06T06:01:32.905Z,67.62
2017-07-06T06:02:32.883Z,67.27
2017-07-06T06:03:32.870Z,67.17
2017-07-06T06:04:32.854Z,66.4
2017-07-06T06:05:32.829Z,66.2
2017-07-06T06:06:32.823Z,65.56
2017-07-06T06:07:32.804Z,65.08
2017-07-06T06:08:32.800Z,65.37
2017-07-06T06:09:32.774Z,65.01
2017-07-06T06:10:32.759Z,63.76
2017-07-06T06:11:32.748Z,64.05
2017-07-06T06:12:32.733Z,64.4
2017-07-06T06:13:32.766Z,63.76
2017-07-06T06:14:32.704Z,63.95
2017-07-06T06:15:32.691Z,63.47
2017-07-06T06:16:32.674Z,63.18
2017-07-06T06:17:32.663Z,63.56
2017-07-06T06:18:32.646Z,62.34
2017-07-06T06:19:32.632Z,61.98
2017-07-06T06:20:32.621Z,62.27
2017-07-06T06:21:32.606Z,61.98
2017-07-06T06:22:32.594Z,61.02
2017-07-06T06:23:32.576Z,60.92
2017-07-06T06:24:32.568Z,60.92
2017-07-06T06:25:32.559Z,60.85
2017-07-06T06:26:32.540Z,59.98
2017-07-06T06:27:32.524Z,59.79
2017-07-06T06:28:32.514Z,60.08
2017-07-06T06:29:32.512Z,59.89
2017-07-06T06:30:32.483Z,59.98
2017-07-06T06:31:32.474Z,59.79
2017-07-06T06:32:32.465Z,59.79
2017-07-06T06:33:32.451Z,59.05
2017-07-06T06:34:32.436Z,58.85
2017-07-06T06:35:32.430Z,58.2
2017-07-06T06:36:32.466Z,58.11
2017-07-06T06:37:32.402Z,58.3
2017-07-06T06:38:32.389Z,57.71
2017-07-06T06:39:32.376Z,56.49
2017-07-06T06:40:32.361Z,56.39
2017-07-06T06:41:32.365Z,56.59
2017-07-06T06:42:32.399Z,55.44
2017-07-06T06:43:32.329Z,56.23
2017-07-06T06:44:32.318Z,55.54
2017-07-06T06:45:32.305Z,55.64
2017-07-06T06:46:31.984Z,54.86
2017-07-06T06:47:31.976Z,54.38
2017-07-06T06:48:32.278Z,54.19
2017-07-06T06:49:32.280Z,54.86
2017-07-06T06:50:32.246Z,54.86
2017-07-06T06:51:32.236Z,53.83
2017-07-06T06:52:32.232Z,53.44
2017-07-06T06:53:32.227Z,54.11
2017-07-06T06:54:32.202Z,54.11
2017-07-06T06:55:32.211Z,53.66
2017-07-06T06:56:32.185Z,52.78
2017-07-06T06:57:32.173Z,52.5
2017-07-06T06:58:32.162Z,52.42
2017-07-06T06:59:32.158Z,52.62
2017-07-06T07:00:32.135Z,51.09
2017-07-06T07:01:32.133Z,51.84
2017-07-06T07:02:32.120Z,50.96
2017-07-06T07:03:31.804Z,51.35
2017-07-06T07:04:32.096Z,51.14
2017-07-06T07:05:32.090Z,52.13
2017-07-06T07:06:32.081Z,51.84
2017-07-06T07:07:32.070Z,51.38
2017-07-06T07:08:32.061Z,51.18
2017-07-06T07:09:32.058Z,50.51
2017-07-06T07:10:32.048Z,50.99
2017-07-06T07:11:32.027Z,50.6
2017-07-06T07:12:31.708Z,50.51
2017-07-06T07:13:32.009Z,50.24
2017-07-06T07:14:32.003Z,49.95
2017-07-06T07:15:31.996Z,49.39
2017-07-06T07:16:31.988Z,48.54
2017-07-06T07:17:31.971Z,48.34
2017-07-06T07:18:31.959Z,48.03
2017-07-06T07:19:32.009Z,48.51
2017-07-06T07:20:31.948Z,47.74
2017-07-06T07:21:31.935Z,48.32
2017-07-06T07:22:31.932Z,47.64
2017-07-06T07:23:31.912Z,47.64
2017-07-06T07:24:31.905Z,48.32
2017-07-06T07:25:31.904Z,49.07
2017-07-06T07:26:31.896Z,48.97
2017-07-06T07:27:31.880Z,48.2
2017-07-06T07:28:31.941Z,48.2
2017-07-06T07:29:31.869Z,48.3
2017-07-06T07:30:31.857Z,48.1
2017-07-06T07:31:31.849Z,47.32
2017-07-06T07:32:31.899Z,48.2
2017-07-06T07:33:31.829Z,48.85
2017-07-06T07:34:31.878Z,49.27
2017-07-06T07:35:31.814Z,49.17
2017-07-06T07:36:31.802Z,48.41
2017-07-06T07:37:31.790Z,47.83
2017-07-06T07:38:31.784Z,46.5
2017-07-06T07:39:31.827Z,45.84
2017-07-06T07:40:31.767Z,46.51
2017-07-06T07:41:31.759Z,46.42
2017-07-06T07:42:31.747Z,46.5
2017-07-06T07:43:31.743Z,46.78
2017-07-06T07:44:31.733Z,46.78
2017-07-06T07:45:31.725Z,46.5
2017-07-06T07:46:31.715Z,46.01
2017-07-06T07:47:31.708Z,46.2
2017-07-06T07:48:31.698Z,46.23
2017-07-06T07:49:31.383Z,45.94
2017-07-06T07:50:31.684Z,45.74
2017-07-06T07:51:31.675Z,46.23
2017-07-06T07:52:31.666Z,45.94
2017-07-06T07:53:31.665Z,45.95
2017-07-06T07:54:31.654Z,45.76
2017-07-06T07:55:31.640Z,44.89
2017-07-06T07:56:31.324Z,44.79
2017-07-06T07:57:31.627Z,44.79
2017-07-06T07:58:31.626Z,45.18
2017-07-06T07:59:31.611Z,45.18
2017-07-06T08:00:31.610Z,44.59
2017-07-06T08:01:31.283Z,44.32
2017-07-06T08:02:31.331Z,44.89
2017-07-06T08:03:31.584Z,45.37
2017-07-06T08:04:31.570Z,45.37
2017-07-06T08:05:31.564Z,45.47
2017-07-06T08:06:31.556Z,45.45
2017-07-06T08:07:31.245Z,45.86
2017-07-06T08:08:31.540Z,45.37
2017-07-06T08:09:31.552Z,44.49
2017-07-06T08:10:31.526Z,44.79
2017-07-06T08:11:31.580Z,44.71
2017-07-06T08:12:31.566Z,44.42
2017-07-06T08:13:31.501Z,43.66
2017-07-06T08:14:31.499Z,43.66
2017-07-06T08:15:31.492Z,43.18
2017-07-06T08:16:31.482Z,43.1
2017-07-06T08:17:31.482Z,42.41
2017-07-06T08:18:31.518Z,42.44
2017-07-06T08:19:31.210Z,41.95
2017-07-06T08:20:31.451Z,42.05
2017-07-06T08:21:31.136Z,42.71
2017-07-06T08:22:31.437Z,42.32
2017-07-06T08:23:31.122Z,42.14
2017-07-06T08:24:31.424Z,41.95
2017-07-06T08:25:31.418Z,41.58
2017-07-06T08:26:31.463Z,41.5
2017-07-06T08:27:31.410Z,41.6
2017-07-06T08:28:31.400Z,40.63
2017-07-06T08:29:31.398Z,39.94
2017-07-06T08:30:31.388Z,39.67
2017-07-06T08:31:31.374Z,39.76
2017-07-06T08:32:31.374Z,39.76
2017-07-06T08:33:31.465Z,39.37
2017-07-06T08:34:31.366Z,39.49
2017-07-06T08:35:31.357Z,39.1
2017-07-06T08:36:31.349Z,37.65
2017-07-06T08:37:31.037Z,38.22
2017-07-06T08:38:31.336Z,38.42
2017-07-06T08:39:31.387Z,38.9
2017-07-06T08:40:31.330Z,38.89
2017-07-06T08:41:31.324Z,38.42
2017-07-06T08:42:31.313Z,38.42
2017-07-06T08:43:31.316Z,37.73
2017-07-06T08:44:31.299Z,38.12
2017-07-06T08:45:31.301Z,38.89
2017-07-06T08:46:31.300Z,38.96
2017-07-06T08:47:30.984Z,39.16
2017-07-06T08:48:31.284Z,39.36
2017-07-06T08:49:31.279Z,38.87
2017-07-06T08:50:31.281Z,38.59
2017-07-06T08:51:31.268Z,38.69
2017-07-06T08:52:31.260Z,38.79
2017-07-06T08:53:31.260Z,38.59
2017-07-06T08:54:31.254Z,38.4
2017-07-06T08:55:31.249Z,38.67
2017-07-06T08:56:31.244Z,38.96
2017-07-06T08:57:31.236Z,38.67
2017-07-06T08:58:31.230Z,38.38
2017-07-06T08:59:31.235Z,38.48
2017-07-06T09:00:30.913Z,38.48
2017-07-06T09:01:31.215Z,37.71
2017-07-06T09:02:31.212Z,37.62
2017-07-06T09:03:30.898Z,38.1
2017-07-06T09:04:31.196Z,38.1
2017-07-06T09:05:31.196Z,38.02
2017-07-06T09:06:30.880Z,37.83
2017-07-06T09:07:31.191Z,37.24
2017-07-06T09:08:30.869Z,37.04
2017-07-06T09:09:30.865Z,37.73
2017-07-06T09:10:31.170Z,38.02
2017-07-06T09:11:31.163Z,37.34
2017-07-06T09:12:31.231Z,37.54
2017-07-06T09:13:31.157Z,37.73
2017-07-06T09:14:31.154Z,38.12
2017-07-06T09:15:31.155Z,38.12
2017-07-06T09:16:31.148Z,38.42
2017-07-06T09:17:31.436Z,38.42
2017-07-06T09:18:31.130Z,38.98
2017-07-06T09:19:31.127Z,38.2
2017-07-06T09:20:31.117Z,37.83
2017-07-06T09:21:31.113Z,37.91
2017-07-06T09:22:31.105Z,38.28
2017-07-06T09:23:30.794Z,38.67
2017-07-06T09:24:31.100Z,38.96
2017-07-06T09:25:31.093Z,39.16
2017-07-06T09:26:31.093Z,38.48
2017-07-06T09:27:30.780Z,38.38
2017-07-06T09:28:31.087Z,38.87
2017-07-06T09:29:31.070Z,38.94
2017-07-06T09:30:31.069Z,39.23
2017-07-06T09:31:31.064Z,38.96
2017-07-06T09:32:31.060Z,39.26
2017-07-06T09:33:31.051Z,39.43
2017-07-06T09:34:31.102Z,39.82
2017-07-06T09:35:31.037Z,38.67
2017-07-06T09:36:31.035Z,38.49
2017-07-06T09:37:30.722Z,38.38
2017-07-06T09:38:31.022Z,38.38
2017-07-06T09:39:31.020Z,38.09
2017-07-06T09:40:30.706Z,37.79
2017-07-06T09:41:31.009Z,38.01
2017-07-06T09:42:31.008Z,38.4
2017-07-06T09:43:30.997Z,38.77
2017-07-06T09:44:30.995Z,38.77
2017-07-06T09:45:30.993Z,39.16
2017-07-06T09:46:31.031Z,39.43
2017-07-06T09:47:30.983Z,38.48
2017-07-06T09:48:30.984Z,38.18
2017-07-06T09:49:30.967Z,37.81
2017-07-06T09:50:31.002Z,36.94
2017-07-06T09:51:30.643Z,36.85
2017-07-06T09:52:30.996Z,37.62
2017-07-06T09:53:30.952Z,37.81
2017-07-06T09:54:30.625Z,38.28
2017-07-06T09:55:30.999Z,38.38
2017-07-06T09:56:30.923Z,38.18
2017-07-06T09:57:30.917Z,39.04
2017-07-06T09:58:30.914Z,39.61
2017-07-06T09:59:30.908Z,39.51
2017-07-06T10:00:30.905Z,40
2017-07-06T10:01:30.891Z,40.66
2017-07-06T10:02:30.574Z,40.56
2017-07-06T10:03:30.885Z,41.05
2017-07-06T10:04:30.565Z,40.27
2017-07-06T10:05:30.870Z,39.9
2017-07-06T10:06:30.861Z,39.31
2017-07-06T10:07:30.856Z,38.75
2017-07-06T10:08:30.898Z,38.35
2017-07-06T10:09:30.850Z,38.82
2017-07-06T10:10:30.836Z,39.61
2017-07-06T10:11:30.932Z,40.93
2017-07-06T10:12:31.076Z,40.16
2017-07-06T10:13:30.824Z,40.55
2017-07-06T10:14:30.503Z,40.62
2017-07-06T10:15:30.856Z,40.55
2017-07-06T10:16:30.492Z,41.03
2017-07-06T10:17:30.799Z,40.55
2017-07-06T10:18:30.786Z,40.81
2017-07-06T10:19:30.783Z,40.45
2017-07-06T10:20:30.775Z,40.08
2017-07-06T10:21:30.768Z,39.41
2017-07-06T10:22:30.503Z,38.45
2017-07-06T10:23:30.757Z,38.09
2017-07-06T10:24:30.751Z,37.21
2017-07-06T10:25:30.743Z,36.82
2017-07-06T10:26:30.734Z,37.02
2017-07-06T10:27:30.425Z,36.83
2017-07-06T10:28:30.723Z,36.24
2017-07-06T10:29:30.719Z,36.26
2017-07-06T10:30:30.716Z,35.79
2017-07-06T10:31:30.708Z,35.32
2017-07-06T10:32:30.703Z,34.64
2017-07-06T10:33:30.696Z,34.16
2017-07-06T10:34:30.692Z,34.14
2017-07-06T10:35:30.688Z,34.13
2017-07-06T10:36:30.686Z,34.23
2017-07-06T10:37:30.728Z,34.11
2017-07-06T10:38:30.467Z,34.97
2017-07-06T10:39:30.667Z,35.06
2017-07-06T10:40:30.659Z,35.16
2017-07-06T10:41:30.654Z,35.07
2017-07-06T10:42:30.647Z,34.08
2017-07-06T10:43:30.702Z,33.8
2017-07-06T10:44:30.334Z,33.02
2017-07-06T10:45:30.641Z,33.04
2017-07-06T10:46:30.632Z,33.23
2017-07-06T10:47:30.623Z,33.14
2017-07-06T10:48:30.622Z,33.72
2017-07-06T10:49:30.670Z,33.72
2017-07-06T10:50:30.603Z,33.82
2017-07-06T10:51:30.599Z,33.14
2017-07-06T10:52:30.595Z,33.05
2017-07-06T10:53:30.592Z,32.95
2017-07-06T10:54:30.654Z,33.15
2017-07-06T10:55:30.581Z,33.34
2017-07-06T10:56:30.581Z,33.34
2017-07-06T10:57:30.573Z,33.15
2017-07-06T10:58:30.252Z,33.64
2017-07-06T10:59:30.556Z,33.56
2017-07-06T11:00:30.572Z,33.07
2017-07-06T11:01:30.646Z,32.87
2017-07-06T11:02:30.543Z,33.84
2017-07-06T11:03:30.534Z,34.41
2017-07-06T11:04:30.528Z,34.11
2017-07-06T11:05:30.521Z,34.31
2017-07-06T11:06:30.525Z,34.01
2017-07-06T11:07:30.722Z,34.21
2017-07-06T11:08:30.508Z,33.92
2017-07-06T11:09:30.500Z,34.31
2017-07-06T11:10:30.500Z,34.31
2017-07-06T11:11:30.496Z,34.68
2017-07-06T11:12:30.497Z,35.17
2017-07-06T11:13:30.481Z,35.25
2017-07-06T11:14:30.481Z,34.96
2017-07-06T11:15:30.472Z,35.16
2017-07-06T11:16:30.511Z,35.24
2017-07-06T11:17:30.456Z,35.71
2017-07-06T11:18:30.456Z,35.31
2017-07-06T11:19:30.135Z,35.49
2017-07-06T11:20:30.130Z,35.57
2017-07-06T11:21:30.484Z,36.06
2017-07-06T11:22:30.414Z,36.04
2017-07-06T11:23:30.408Z,35.75
2017-07-06T11:24:30.404Z,35.85
2017-07-06T11:25:30.077Z,36.41
2017-07-06T11:26:30.381Z,36.69
2017-07-06T11:27:30.374Z,37.27
2017-07-06T11:28:30.417Z,37.56
2017-07-06T11:29:30.348Z,36.79
2017-07-06T11:30:30.344Z,37.45
2017-07-06T11:31:30.343Z,38.03
2017-07-06T11:32:30.323Z,38.31
2017-07-06T11:33:30.309Z,38.4
2017-07-06T11:34:29.996Z,38.67
2017-07-06T11:35:30.285Z,39.16
2017-07-06T11:36:30.277Z,39.36
2017-07-06T11:37:30.267Z,39.26
2017-07-06T11:38:30.255Z,39.26
2017-07-06T11:39:30.241Z,39.16
2017-07-06T11:40:30.263Z,38.65
2017-07-06T11:41:30.219Z,38.85
2017-07-06T11:42:30.211Z,38.85
2017-07-06T11:43:30.196Z,39.14
2017-07-06T11:44:30.179Z,39.62
2017-07-06T11:45:30.170Z,39.24
2017-07-06T11:46:30.152Z,39.92
2017-07-06T11:47:30.141Z,40.6
2017-07-06T11:48:30.120Z,40.11
2017-07-06T11:49:30.109Z,40.58
2017-07-06T11:50:29.837Z,41.06
2017-07-06T11:51:30.094Z,41.36
2017-07-06T11:52:30.073Z,41.36
2017-07-06T11:53:30.053Z,41.43
2017-07-06T11:54:30.055Z,41.63
2017-07-06T11:55:30.028Z,41.33
2017-07-06T11:56:30.011Z,41.63
2017-07-06T11:57:30.008Z,41.63
2017-07-06T11:58:29.979Z,41.63
2017-07-06T11:59:29.982Z,42.21
2017-07-06T12:00:30.059Z,42.89
2017-07-06T12:01:29.938Z,42.69
2017-07-06T12:02:29.923Z,42.89
2017-07-06T12:03:29.911Z,42.5
2017-07-06T12:04:29.897Z,42.6
2017-07-06T12:05:29.880Z,43.08
2017-07-06T12:06:29.867Z,42.79
2017-07-06T12:07:29.863Z,42.5
2017-07-06T12:08:29.831Z,42.21
2017-07-06T12:09:29.817Z,42.3
2017-07-06T12:10:29.550Z,42.6
2017-07-06T12:11:29.789Z,42.4
2017-07-06T12:12:29.870Z,42.3
2017-07-06T12:13:29.762Z,42.3
2017-07-06T12:14:29.743Z,42.43
2017-07-06T12:15:29.726Z,42.43
2017-07-06T12:16:29.405Z,42.61
2017-07-06T12:17:29.803Z,42.81
2017-07-06T12:18:29.684Z,43.1
2017-07-06T12:19:29.679Z,43.1
2017-07-06T12:20:29.659Z,43.2
2017-07-06T12:21:29.637Z,43.2
2017-07-06T12:22:29.621Z,43.4
2017-07-06T12:23:29.658Z,43.3
2017-07-06T12:24:29.594Z,43.3
2017-07-06T12:25:29.588Z,43.01
2017-07-06T12:26:29.565Z,43.2
2017-07-06T12:27:29.244Z,43.3
2017-07-06T12:28:29.533Z,43.37
2017-07-06T12:29:29.519Z,43.66
2017-07-06T12:30:29.515Z,43.4
2017-07-06T12:31:29.486Z,43.68
2017-07-06T12:32:29.471Z,43.59
2017-07-06T12:33:29.470Z,43.22
2017-07-06T12:34:29.438Z,42.83
2017-07-06T12:35:29.427Z,42.93
2017-07-06T12:36:29.408Z,42.44
2017-07-06T12:37:29.395Z,42.25
2017-07-06T12:38:29.382Z,42.44
2017-07-06T12:39:29.365Z,42.25
2017-07-06T12:40:29.355Z,42.15
2017-07-06T12:41:29.340Z,42.15
2017-07-06T12:42:29.321Z,42.15
2017-07-06T12:43:28.997Z,42.05
2017-07-06T12:44:29.290Z,42.05
2017-07-06T12:45:29.278Z,42.05
2017-07-06T12:46:29.259Z,42.05
2017-07-06T12:47:29.248Z,42.44
2017-07-06T12:48:28.918Z,42.83
2017-07-06T12:49:29.215Z,43.12
2017-07-06T12:50:29.199Z,43.12
2017-07-06T12:51:29.182Z,43.01
2017-07-06T12:52:29.169Z,43.4
2017-07-06T12:53:29.149Z,43.49
2017-07-06T12:54:29.142Z,43.98
2017-07-06T12:55:29.125Z,43.88
2017-07-06T12:56:28.843Z,43.78